Time;durP1;ratioP1;P1;durP2;ratioP2;P2;SDS_P1;SDS_P2;PMS_P1;PMS_P2;Temp;Humidity;BMP_temperature;BMP_pressure;BME280_temperature;BME280_humidity;BME280_pressure;Samples;Min_cycle;Max_cycle;Signal;HPM_P1;HPM_P2
2022/05/20 00:02:18;;;;;;;12.55;6.63;;;13.40;99.90;;;;;;4987663;28;20093;-41
2022/05/20 00:04:44;;;;;;;14.07;7.18;;;13.40;99.90;;;;;;4988612;28;20133;-41
2022/05/20 00:07:09;;;;;;;12.05;7.90;;;13.40;99.90;;;;;;4972874;28;20074;-42
2022/05/20 00:09:36;;;;;;;12.75;8.20;;;13.30;99.90;;;;;;4988487;28;20047;-41
2022/05/20 00:12:04;;;;;;;14.50;7.93;;;13.40;99.90;;;;;;4988157;28;20133;-41
2022/05/20 00:14:33;;;;;;;12.70;9.02;;;13.40;99.90;;;;;;4989373;28;20048;-41
2022/05/20 00:17:04;;;;;;;14.05;9.25;;;13.40;99.90;;;;;;4975152;28;20038;-41
2022/05/20 00:19:29;;;;;;;13.55;9.00;;;13.40;99.90;;;;;;4972099;28;20654;-41
2022/05/20 00:21:55;;;;;;;13.73;9.73;;;13.30;99.90;;;;;;4972841;28;20051;-41
2022/05/20 00:24:21;;;;;;;15.27;9.52;;;13.30;99.90;;;;;;4971835;28;20043;-41
2022/05/20 00:26:47;;;;;;;15.10;10.02;;;13.40;99.90;;;;;;4956265;28;20046;-41
2022/05/20 00:29:13;;;;;;;13.65;10.80;;;13.30;99.90;;;;;;4970667;28;20057;-41
2022/05/20 00:31:38;;;;;;;15.55;10.88;;;13.30;99.90;;;;;;4972936;28;20129;-41
2022/05/20 00:34:04;;;;;;;16.02;11.73;;;13.10;99.90;;;;;;4971665;28;20054;-41
2022/05/20 00:36:30;;;;;;;17.05;11.95;;;13.20;99.90;;;;;;4958749;28;20478;-41
2022/05/20 00:38:56;;;;;;;16.20;11.27;;;13.20;99.90;;;;;;4971026;28;20053;-41
2022/05/20 00:41:22;;;;;;;13.80;10.82;;;13.20;99.90;;;;;;4972142;28;20409;-41
2022/05/20 00:43:49;;;;;;;18.60;12.15;;;13.10;99.90;;;;;;4971472;28;20051;-41
2022/05/20 00:46:21;;;;;;;14.32;11.57;;;13.10;99.90;;;;;;4963115;28;20600;-42
2022/05/20 00:48:54;;;;;;;17.85;12.63;;;13.10;99.90;;;;;;4968066;28;20047;-41
2022/05/20 00:51:25;;;;;;;21.38;13.13;;;13.10;99.90;;;;;;4972526;28;20086;-41
2022/05/20 00:54:00;;;;;;;14.48;12.30;;;13.10;99.90;;;;;;4971216;28;20110;-41
2022/05/20 00:56:33;;;;;;;14.88;11.68;;;13.00;99.90;;;;;;4960122;28;20113;-41
2022/05/20 00:58:59;;;;;;;16.65;12.43;;;12.90;99.90;;;;;;4969171;28;20050;-41
2022/05/20 01:01:26;;;;;;;15.18;12.55;;;13.00;99.90;;;;;;4972311;28;20402;-41
2022/05/20 01:03:53;;;;;;;17.75;12.82;;;12.90;99.90;;;;;;4957755;28;20120;-41
2022/05/20 01:06:19;;;;;;;17.88;12.38;;;12.90;99.90;;;;;;4961170;28;20055;-41
2022/05/20 01:08:44;;;;;;;18.25;11.93;;;12.80;99.90;;;;;;4993714;28;20574;-41
2022/05/20 01:11:10;;;;;;;16.83;13.20;;;12.80;99.90;;;;;;4993244;28;20047;-41
2022/05/20 01:13:36;;;;;;;19.85;14.10;;;12.70;99.90;;;;;;4977227;28;20050;-41
2022/05/20 01:16:08;;;;;;;20.98;13.77;;;12.70;99.90;;;;;;4971572;28;20051;-41
2022/05/20 01:18:34;;;;;;;;;;;12.70;99.90;;;;;;4962507;28;20661;-41
2022/05/20 01:21:02;;;;;;;18.67;13.43;;;12.60;99.90;;;;;;4971697;28;19922;-42
2022/05/20 01:23:29;;;;;;;18.73;14.02;;;12.60;99.90;;;;;;4971413;28;20070;-41
2022/05/20 01:25:58;;;;;;;20.98;14.07;;;12.50;99.90;;;;;;4971403;28;20051;-41
2022/05/20 01:28:26;;;;;;;19.52;14.15;;;12.50;99.90;;;;;;4976155;28;20046;-41
2022/05/20 01:31:03;;;;;;;20.25;14.82;;;12.50;99.90;;;;;;5010546;28;20054;-41
2022/05/20 01:33:32;;;;;;;20.10;13.57;;;12.40;99.90;;;;;;4998306;28;20144;-41
2022/05/20 01:36:00;;;;;;;19.73;14.40;;;12.40;99.90;;;;;;4990675;28;20057;-41
2022/05/20 01:38:26;;;;;;;20.30;14.63;;;12.30;99.90;;;;;;4975600;28;20121;-41
2022/05/20 01:40:56;;;;;;;18.42;12.65;;;12.30;99.90;;;;;;4991031;28;20117;-41
2022/05/20 01:43:59;;;;;;;21.48;14.70;;;12.30;99.90;;;;;;4989802;28;20053;-41
2022/05/20 01:46:32;;;;;;;20.90;14.77;;;12.30;99.90;;;;;;4978080;28;20061;-41
2022/05/20 01:49:11;;;;;;;21.38;15.52;;;12.30;99.90;;;;;;4988336;28;20417;-41
2022/05/20 01:52:03;;;;;;;21.17;16.10;;;12.20;99.90;;;;;;4989402;28;20402;-41
2022/05/20 01:54:39;;;;;;;;;;;12.20;99.90;;;;;;4988946;28;20100;-41
2022/05/20 01:57:36;;;;;;;19.73;14.57;;;12.10;99.90;;;;;;4989535;28;20020;-42
2022/05/20 02:00:06;;;;;;;18.25;13.18;;;12.10;99.90;;;;;;4994949;28;20081;-41
2022/05/20 02:03:03;;;;;;;19.77;14.65;;;12.10;99.90;;;;;;4993645;28;20077;-41
2022/05/20 02:05:49;;;;;;;18.45;14.50;;;12.10;99.90;;;;;;4991411;28;20122;-41
2022/05/20 02:08:26;;;;;;;20.30;14.15;;;12.10;99.90;;;;;;4988024;28;20049;-41
2022/05/20 02:11:01;;;;;;;19.85;13.85;;;12.10;99.90;;;;;;5008141;28;20049;-41
2022/05/20 02:13:30;;;;;;;20.83;15.60;;;12.00;99.90;;;;;;4989591;28;20116;-41
2022/05/20 02:16:06;;;;;;;21.58;15.20;;;12.00;99.90;;;;;;4989977;28;20069;-41
2022/05/20 02:18:49;;;;;;;20.25;14.75;;;12.00;99.90;;;;;;4976900;28;20072;-41
2022/05/20 02:21:18;;;;;;;18.33;13.52;;;12.00;99.90;;;;;;4990069;28;20046;-41
2022/05/20 02:23:50;;;;;;;17.45;14.23;;;12.00;99.90;;;;;;4989590;28;20158;-41
2022/05/20 02:26:21;;;;;;;17.35;13.90;;;12.00;99.90;;;;;;4979650;28;20441;-42
2022/05/20 02:28:55;;;;;;;;;;;12.10;99.90;;;;;;4986680;28;20054;-41
2022/05/20 02:31:36;;;;;;;18.58;13.65;;;12.00;99.90;;;;;;4989664;28;19933;-41
2022/05/20 02:34:02;;;;;;;21.33;14.45;;;11.90;99.90;;;;;;4988891;28;20109;-41
2022/05/20 02:36:33;;;;;;;20.52;12.65;;;11.90;99.90;;;;;;4977513;28;20764;-41
2022/05/20 02:38:59;;;;;;;17.98;13.45;;;11.90;99.90;;;;;;4986851;28;20058;-41
2022/05/20 02:41:25;;;;;;;19.23;13.63;;;11.90;99.90;;;;;;4989696;28;20045;-41
2022/05/20 02:43:51;;;;;;;19.58;13.48;;;11.80;99.90;;;;;;4989112;28;20112;-41
2022/05/20 02:46:17;;;;;;;20.10;14.00;;;11.80;99.90;;;;;;4979041;28;20053;-41
2022/05/20 02:48:43;;;;;;;19.55;13.73;;;11.90;99.90;;;;;;4988968;28;20080;-41
2022/05/20 02:51:09;;;;;;;23.38;15.00;;;11.70;99.90;;;;;;4989622;28;20089;-41
2022/05/20 02:53:35;;;;;;;20.63;15.07;;;11.70;99.90;;;;;;4986251;28;20174;-41
2022/05/20 02:56:03;;;;;;;19.98;14.63;;;11.80;99.90;;;;;;4969578;28;20054;-41
2022/05/20 03:04:11;;;;;;;23.77;16.02;;;11.70;99.90;;;;;;4993177;28;20061;-41
2022/05/20 03:06:46;;;;;;;20.70;13.88;;;11.80;99.90;;;;;;4975489;28;20054;-41
2022/05/20 03:09:14;;;;;;;23.40;15.43;;;11.80;99.90;;;;;;4988397;28;20547;-41
2022/05/20 03:11:41;;;;;;;19.20;15.48;;;11.70;99.90;;;;;;4989349;28;20103;-41
2022/05/20 03:14:09;;;;;;;21.98;15.43;;;11.70;99.90;;;;;;4987071;28;20050;-41
2022/05/20 03:16:36;;;;;;;25.65;17.00;;;11.70;99.90;;;;;;4973770;28;20069;-41
2022/05/20 03:19:02;;;;;;;21.73;16.08;;;11.70;99.90;;;;;;4986621;28;20080;-41
2022/05/20 03:21:28;;;;;;;24.25;16.65;;;11.70;99.90;;;;;;4989365;28;20082;-41
2022/05/20 03:23:59;;;;;;;19.55;14.40;;;11.80;99.90;;;;;;5003487;28;20104;-41
2022/05/20 03:26:29;;;;;;;22.70;16.80;;;11.70;99.90;;;;;;4987470;28;20058;-41
2022/05/20 03:28:57;;;;;;;21.20;15.48;;;11.70;99.90;;;;;;4983566;28;20058;-41
2022/05/20 03:31:23;;;;;;;25.20;16.80;;;11.70;99.90;;;;;;4989088;28;20050;-42
2022/05/20 03:33:48;;;;;;;27.30;17.92;;;11.70;99.90;;;;;;4988407;28;20509;-41
2022/05/20 03:36:15;;;;;;;24.65;17.75;;;11.70;99.90;;;;;;4979533;28;20108;-41
2022/05/20 03:38:40;;;;;;;25.77;17.77;;;11.60;99.90;;;;;;4982746;28;20580;-42
2022/05/20 03:41:06;;;;;;;24.52;17.55;;;11.60;99.90;;;;;;4989264;28;20054;-41
2022/05/20 03:43:35;;;;;;;25.00;17.10;;;11.60;99.90;;;;;;4988223;28;20504;-41
2022/05/20 03:46:01;;;;;;;23.45;16.73;;;11.60;99.90;;;;;;4989355;28;20050;-41
2022/05/20 03:48:27;;;;;;;25.13;17.88;;;11.60;99.90;;;;;;4958393;28;20104;-41
2022/05/20 03:50:53;;;;;;;26.85;18.08;;;11.60;99.90;;;;;;4968230;28;20047;-41
2022/05/20 03:53:19;;;;;;;22.77;16.60;;;11.60;99.90;;;;;;4981446;28;20054;-41
2022/05/20 03:55:45;;;;;;;22.20;15.90;;;11.50;99.90;;;;;;4992772;28;20410;-41
2022/05/20 03:58:11;;;;;;;22.23;17.35;;;11.60;99.90;;;;;;4976522;28;20038;-41
2022/05/20 04:03:22;;;;;;;25.77;17.35;;;11.60;99.90;;;;;;5000448;28;20050;-41
2022/05/20 04:05:48;;;;;;;22.85;17.20;;;11.50;99.90;;;;;;4990487;28;20409;-41
2022/05/20 04:08:14;;;;;;;19.40;16.20;;;11.50;99.90;;;;;;4976551;28;20050;-41
2022/05/20 04:10:40;;;;;;;20.15;15.25;;;11.50;99.90;;;;;;4992462;28;20125;-41
2022/05/20 04:13:06;;;;;;;20.52;15.90;;;11.50;99.90;;;;;;4996948;28;20133;-41
2022/05/20 04:15:32;;;;;;;20.90;16.55;;;11.50;99.90;;;;;;4994323;28;20046;-41
2022/05/20 04:17:58;;;;;;;22.88;16.90;;;11.50;99.90;;;;;;4972781;28;20449;-41
2022/05/20 04:20:23;;;;;;;21.60;16.63;;;11.50;99.90;;;;;;4972978;28;20131;-41
2022/05/20 04:22:49;;;;;;;25.67;17.52;;;11.50;99.90;;;;;;4977981;28;20046;-41
2022/05/20 04:25:15;;;;;;;29.50;19.38;;;11.50;99.90;;;;;;4991885;28;20521;-41
2022/05/20 04:27:41;;;;;;;21.42;16.75;;;11.60;99.90;;;;;;4973161;28;20068;-41
2022/05/20 04:30:08;;;;;;;21.15;16.02;;;11.50;99.90;;;;;;4990761;28;20050;-41
2022/05/20 04:32:33;;;;;;;21.73;16.83;;;11.50;99.90;;;;;;4989903;28;20046;-41
2022/05/20 04:34:59;;;;;;;18.48;15.60;;;11.50;99.90;;;;;;4992100;28;20042;-41
2022/05/20 04:37:25;;;;;;;23.83;17.45;;;11.50;99.90;;;;;;4976633;28;20054;-43
2022/05/20 04:39:51;;;;;;;26.42;16.67;;;11.50;99.90;;;;;;4990692;28;20595;-41
2022/05/20 04:47:46;;;;;;;23.55;17.13;;;11.60;99.90;;;;;;4968214;28;20408;-41
2022/05/20 04:50:12;;;;;;;23.92;17.20;;;11.60;99.90;;;;;;4991201;28;20133;-41
2022/05/20 04:52:38;;;;;;;22.95;16.45;;;11.60;99.90;;;;;;4990482;28;20042;-41
2022/05/20 04:55:04;;;;;;;21.50;16.35;;;11.60;99.90;;;;;;4989174;28;20054;-41
2022/05/20 04:57:36;;;;;;;20.25;17.08;;;11.70;99.90;;;;;;4969234;28;20038;-41
2022/05/20 05:00:21;;;;;;;22.45;16.60;;;11.70;99.90;;;;;;4990570;28;20069;-41
2022/05/20 05:02:47;;;;;;;18.40;15.40;;;11.70;99.90;;;;;;4989323;28;20050;-41
2022/05/20 05:05:16;;;;;;;21.00;16.08;;;11.70;99.90;;;;;;4991409;28;20113;-41
2022/05/20 05:07:45;;;;;;;18.83;15.65;;;11.70;99.90;;;;;;4980259;28;20046;-41
2022/05/20 05:10:14;;;;;;;17.75;15.40;;;11.70;99.90;;;;;;5010946;28;20053;-41
2022/05/20 05:12:39;;;;;;;16.15;14.00;;;11.70;99.90;;;;;;5009105;28;20037;-41
2022/05/20 05:15:06;;;;;;;17.45;14.30;;;11.70;99.90;;;;;;5004131;28;20046;-41
2022/05/20 05:20:23;;;;;;;15.65;14.05;;;11.90;99.90;;;;;;4991380;28;20598;-41
2022/05/20 05:22:49;;;;;;;15.63;14.02;;;11.90;99.90;;;;;;4990281;28;20034;-41
2022/05/20 05:25:16;;;;;;;16.85;14.70;;;12.00;99.90;;;;;;4970190;28;20055;-41
2022/05/20 05:27:41;;;;;;;18.10;15.45;;;12.00;99.90;;;;;;4974075;28;20130;-41
2022/05/20 05:30:09;;;;;;;19.20;15.18;;;12.00;99.90;;;;;;4987301;28;20133;-41
2022/05/20 05:32:35;;;;;;;16.45;14.63;;;12.10;99.90;;;;;;4988840;28;20125;-41
2022/05/20 05:35:02;;;;;;;15.60;13.38;;;12.20;99.90;;;;;;4987559;28;20050;-41
2022/05/20 05:37:28;;;;;;;18.13;14.75;;;12.20;99.90;;;;;;4974911;28;20556;-42
2022/05/20 05:39:54;;;;;;;20.15;15.90;;;12.30;99.90;;;;;;4982472;28;20133;-42
2022/05/20 05:42:20;;;;;;;16.42;13.65;;;12.30;99.90;;;;;;4988415;28;20043;-41
2022/05/20 05:44:46;;;;;;;20.67;15.93;;;12.50;99.90;;;;;;4991314;28;20081;-41
2022/05/20 05:47:12;;;;;;;18.50;15.38;;;12.60;99.90;;;;;;4974811;28;20680;-41
2022/05/20 05:49:38;;;;;;;19.27;15.15;;;12.70;99.90;;;;;;4969735;28;20046;-41
2022/05/20 05:52:04;;;;;;;22.23;14.50;;;12.80;99.90;;;;;;4986666;28;20137;-41
2022/05/20 05:54:31;;;;;;;18.63;14.38;;;12.90;99.90;;;;;;4990033;28;20490;-41
2022/05/20 05:56:57;;;;;;;19.58;15.15;;;13.00;99.90;;;;;;4975647;28;20038;-41
2022/05/20 05:59:22;;;;;;;18.20;15.60;;;13.10;99.90;;;;;;4990044;28;20052;-42
2022/05/20 06:01:48;;;;;;;20.73;15.00;;;13.20;99.90;;;;;;4990526;28;20547;-41
2022/05/20 06:04:14;;;;;;;19.10;14.25;;;13.30;99.90;;;;;;4987860;28;20066;-41
2022/05/20 06:06:39;;;;;;;20.17;14.27;;;13.40;99.90;;;;;;4976542;28;20076;-41
2022/05/20 06:09:05;;;;;;;19.73;14.05;;;13.50;99.90;;;;;;5004441;28;20050;-41
2022/05/20 06:11:31;;;;;;;21.45;14.25;;;13.60;99.90;;;;;;5010186;28;20045;-42
2022/05/20 06:13:56;;;;;;;18.58;13.48;;;13.70;99.90;;;;;;5008746;28;20046;-41
2022/05/20 06:16:22;;;;;;;18.27;13.23;;;13.80;99.90;;;;;;4985497;28;20045;-41
2022/05/20 06:18:50;;;;;;;17.73;12.43;;;13.90;99.90;;;;;;4982770;28;20609;-41
2022/05/20 06:21:16;;;;;;;19.55;12.48;;;14.00;99.90;;;;;;4988551;28;20405;-42
2022/05/20 06:23:41;;;;;;;19.70;13.50;;;14.10;99.90;;;;;;4993469;28;20037;-42
2022/05/20 06:26:07;;;;;;;16.45;12.68;;;14.20;99.90;;;;;;4995071;28;20046;-42
2022/05/20 06:28:33;;;;;;;17.20;10.82;;;14.30;99.90;;;;;;4982023;28;20049;-42
2022/05/20 06:30:59;;;;;;;15.57;10.10;;;14.40;99.90;;;;;;4989378;28;20050;-42
2022/05/20 06:33:25;;;;;;;12.40;7.72;;;14.50;99.90;;;;;;4988422;28;20532;-42
2022/05/20 06:41:20;;;;;;;11.60;9.20;;;14.80;99.90;;;;;;4988757;28;20160;-43
2022/05/20 06:43:46;;;;;;;13.13;10.00;;;14.90;99.90;;;;;;4988358;28;20046;-43
2022/05/20 06:46:12;;;;;;;13.48;8.68;;;15.00;99.90;;;;;;4982062;28;20121;-42
2022/05/20 06:48:43;;;;;;;13.85;8.73;;;15.20;99.90;;;;;;4981442;28;20077;-42
2022/05/20 06:51:10;;;;;;;12.18;8.30;;;15.20;99.90;;;;;;4989201;28;20129;-42
2022/05/20 06:53:36;;;;;;;13.10;8.60;;;15.30;99.90;;;;;;4996657;28;20061;-41
2022/05/20 06:56:02;;;;;;;14.00;9.25;;;15.20;99.90;;;;;;4991549;28;20402;-41
2022/05/20 06:58:30;;;;;;;13.80;9.75;;;15.20;99.90;;;;;;4982404;28;20474;-42
2022/05/20 07:00:56;;;;;;;16.15;10.15;;;15.20;99.90;;;;;;4998010;28;20078;-41
2022/05/20 07:03:22;;;;;;;16.35;10.35;;;15.20;99.90;;;;;;4981913;28;20078;-41
2022/05/20 07:05:48;;;;;;;17.90;10.75;;;15.20;99.90;;;;;;4969708;28;20047;-41
2022/05/20 07:08:14;;;;;;;16.05;11.20;;;15.20;99.90;;;;;;4962591;28;20104;-42
2022/05/20 07:10:40;;;;;;;14.38;10.77;;;15.20;99.90;;;;;;4988969;28;20540;-42
2022/05/20 07:13:07;;;;;;;15.15;11.10;;;15.20;99.90;;;;;;4991634;28;20056;-42
2022/05/20 07:15:32;;;;;;;15.27;10.63;;;15.20;99.90;;;;;;4999351;28;20069;-41
2022/05/20 07:17:58;;;;;;;17.58;11.70;;;15.20;99.90;;;;;;4981871;28;20050;-41
2022/05/20 07:20:24;;;;;;;15.95;9.70;;;15.30;99.90;;;;;;4998038;28;20112;-41
2022/05/20 07:22:50;;;;;;;14.38;9.95;;;15.30;99.90;;;;;;4995857;28;20053;-41
2022/05/20 07:25:15;;;;;;;16.25;9.88;;;15.30;99.90;;;;;;4988205;28;20058;-41
2022/05/20 07:27:41;;;;;;;13.32;8.80;;;15.30;99.90;;;;;;4974101;28;20104;-42
2022/05/20 07:30:08;;;;;;;16.10;8.85;;;15.30;99.90;;;;;;4998059;28;20088;-42
2022/05/20 07:32:34;;;;;;;14.85;8.60;;;15.40;99.90;;;;;;4995752;28;20065;-42
2022/05/20 07:35:00;;;;;;;11.68;8.10;;;15.40;99.90;;;;;;4988676;28;20489;-42
2022/05/20 07:37:26;;;;;;;11.35;7.72;;;15.50;99.90;;;;;;4973124;28;20097;-42
2022/05/20 07:39:52;;;;;;;11.82;7.05;;;15.50;99.90;;;;;;4988698;28;20073;-42
2022/05/20 07:42:17;;;;;;;10.23;6.65;;;15.60;99.90;;;;;;4986220;28;20054;-42
2022/05/20 07:44:43;;;;;;;10.93;6.10;;;15.60;99.90;;;;;;4989157;28;20043;-42
2022/05/20 07:47:09;;;;;;;11.05;6.40;;;15.60;99.90;;;;;;4965485;28;20054;-42
2022/05/20 07:49:35;;;;;;;10.13;6.30;;;15.60;99.90;;;;;;4985512;28;20066;-42
2022/05/20 07:52:03;;;;;;;13.70;7.35;;;15.60;99.90;;;;;;4985231;28;20042;-42
2022/05/20 07:54:34;;;;;;;21.15;14.82;;;15.50;99.90;;;;;;4995912;28;20046;-42
2022/05/20 07:57:03;;;;;;;13.43;8.70;;;15.50;99.90;;;;;;4973069;28;20046;-42
2022/05/20 07:59:37;;;;;;;13.82;11.40;;;15.60;99.90;;;;;;4982615;28;20080;-42
2022/05/20 08:02:03;;;;;;;10.35;7.15;;;15.60;99.90;;;;;;4987054;28;20657;-42
2022/05/20 08:07:26;;;;;;;8.07;5.15;;;15.70;99.90;;;;;;4966987;28;20054;-42
2022/05/20 08:09:52;;;;;;;8.03;6.00;;;15.80;99.90;;;;;;4985879;28;20466;-42
2022/05/20 08:12:17;;;;;;;9.48;6.80;;;15.80;99.90;;;;;;4975807;28;20278;-42
2022/05/20 08:14:43;;;;;;;11.02;6.07;;;15.90;99.90;;;;;;4955708;28;20042;-42
2022/05/20 08:17:09;;;;;;;11.02;6.10;;;15.90;99.90;;;;;;4955992;28;20434;-42
2022/05/20 08:19:35;;;;;;;9.93;6.95;;;16.00;99.90;;;;;;4972085;28;20686;-42
2022/05/20 08:22:00;;;;;;;8.52;6.80;;;16.00;99.90;;;;;;4972353;28;20276;-42
2022/05/20 08:24:26;;;;;;;11.82;6.50;;;16.10;99.90;;;;;;4971082;28;20054;-42
2022/05/20 08:26:52;;;;;;;8.30;4.82;;;16.10;99.90;;;;;;4957833;28;20170;-42
2022/05/20 08:29:18;;;;;;;12.55;3.97;;;16.10;99.90;;;;;;4970125;28;20048;-42
2022/05/20 08:31:45;;;;;;;7.50;4.10;;;16.20;99.90;;;;;;4971878;28;20108;-42
2022/05/20 08:34:11;;;;;;;7.60;4.43;;;16.30;99.90;;;;;;4970504;28;20097;-42
2022/05/20 08:36:38;;;;;;;6.85;4.30;;;16.30;99.90;;;;;;4958624;28;20650;-41
2022/05/20 08:39:05;;;;;;;6.03;3.75;;;16.40;99.90;;;;;;4971103;28;20046;-42
2022/05/20 08:41:37;;;;;;;5.85;3.83;;;16.40;99.90;;;;;;5001111;28;21759;-42
2022/05/20 08:44:04;;;;;;;7.93;4.63;;;16.50;99.90;;;;;;4972331;28;20050;-42
2022/05/20 08:46:29;;;;;;;8.88;5.18;;;16.50;99.90;;;;;;4961943;28;20061;-43
2022/05/20 08:48:57;;;;;;;8.05;4.38;;;16.50;99.90;;;;;;4967518;28;20512;-43
2022/05/20 08:51:28;;;;;;;8.60;4.47;;;16.50;99.90;;;;;;4952484;28;20049;-42
2022/05/20 08:53:53;;;;;;;9.88;5.03;;;16.60;99.90;;;;;;4973774;28;20049;-43
2022/05/20 08:56:23;;;;;;;11.07;4.28;;;16.60;99.90;;;;;;4966636;28;20046;-44
2022/05/20 08:59:19;;;;;;;9.85;4.13;;;16.70;99.90;;;;;;4969477;28;20046;-43
2022/05/20 09:01:49;;;;;;;12.35;5.20;;;16.80;99.90;;;;;;4978351;28;20072;-44
2022/05/20 09:04:19;;;;;;;8.00;4.50;;;16.80;99.90;;;;;;4974317;28;20054;-42
2022/05/20 09:07:08;;;;;;;10.63;4.97;;;16.80;99.90;;;;;;4950988;28;20053;-41
2022/05/20 09:09:47;;;;;;;9.60;4.15;;;16.90;99.90;;;;;;4974042;28;20113;-41
2022/05/20 09:12:37;;;;;;;9.88;4.20;;;17.00;99.90;;;;;;4971488;28;20054;-42
2022/05/20 09:17:50;;;;;;;6.72;3.55;;;17.00;99.90;;;;;;4948661;28;20057;-41
2022/05/20 09:20:20;;;;;;;10.63;3.97;;;17.00;99.90;;;;;;4974860;28;20520;-42
2022/05/20 09:23:02;;;;;;;7.70;4.22;;;17.00;99.90;;;;;;4970437;28;20132;-42
2022/05/20 09:25:33;;;;;;;10.13;3.72;;;17.10;99.90;;;;;;4971814;28;20065;-41
2022/05/20 09:28:30;;;;;;;7.35;3.20;;;17.10;99.90;;;;;;4956238;28;20117;-41
2022/05/20 09:31:13;;;;;;;6.25;3.33;;;17.10;99.90;;;;;;4974950;28;20058;-41
2022/05/20 09:33:40;;;;;;;7.78;4.07;;;17.20;99.90;;;;;;4972183;28;20661;-42
2022/05/20 09:36:06;;;;;;;6.13;3.20;;;17.20;99.90;;;;;;4954749;28;20125;-42
2022/05/20 09:38:39;;;;;;;9.05;3.53;;;17.30;99.90;;;;;;4960939;28;20149;-42
2022/05/20 09:41:15;;;;;;;6.10;3.65;;;17.40;99.90;;;;;;4975153;28;20046;-41
2022/05/20 09:43:44;;;;;;;5.45;3.00;;;17.50;99.90;;;;;;4973170;28;20074;-41
2022/05/20 09:46:29;;;;;;;7.13;2.85;;;17.50;99.90;;;;;;4966773;28;20136;-41
2022/05/20 09:49:04;;;;;;;5.13;3.17;;;17.50;99.90;;;;;;4968720;28;20053;-41
2022/05/20 09:51:36;;;;;;;4.95;2.97;;;17.50;99.90;;;;;;4974115;28;20057;-42
2022/05/20 09:54:22;;;;;;;7.13;3.00;;;17.60;99.90;;;;;;4981824;28;20046;-41
2022/05/20 09:57:04;;;;;;;7.47;3.38;;;17.70;99.90;;;;;;4953304;28;20046;-42
2022/05/20 09:59:43;;;;;;;7.10;3.88;;;17.70;99.90;;;;;;4949025;28;20061;-41
2022/05/20 10:02:36;;;;;;;6.90;3.78;;;17.80;99.90;;;;;;4957760;28;20470;-42
2022/05/20 10:05:11;;;;;;;7.55;3.50;;;17.80;99.90;;;;;;4961867;28;20074;-42
2022/05/20 10:07:43;;;;;;;5.78;3.45;;;17.70;99.90;;;;;;4943180;28;20729;-42
2022/05/20 10:10:23;;;;;;;7.97;3.83;;;17.80;99.90;;;;;;4963344;28;20061;-42
2022/05/20 10:12:50;;;;;;;7.70;3.92;;;17.90;99.90;;;;;;4961358;28;20703;-42
2022/05/20 10:15:24;;;;;;;5.30;3.92;;;18.00;99.90;;;;;;4958644;28;20042;-41
2022/05/20 10:17:58;;;;;;;6.70;3.80;;;18.10;99.90;;;;;;4947934;28;20054;-42
2022/05/20 10:20:41;;;;;;;7.57;3.95;;;18.10;99.90;;;;;;4967560;28;20061;-42
2022/05/20 10:23:31;;;;;;;6.28;3.45;;;18.10;99.90;;;;;;4955399;28;20497;-42
2022/05/20 10:26:05;;;;;;;7.10;2.90;;;18.20;99.90;;;;;;4962620;28;20121;-42
2022/05/20 10:32:36;;;;;;;7.47;3.70;;;18.20;99.90;;;;;;4953836;28;20061;-42
2022/05/20 10:35:10;;;;;;;6.15;3.58;;;18.30;99.90;;;;;;4966327;28;20299;-42
2022/05/20 10:37:54;;;;;;;8.57;3.53;;;18.30;99.90;;;;;;4947160;28;20046;-42
2022/05/20 10:40:35;;;;;;;5.63;3.15;;;18.20;99.90;;;;;;4959404;28;20073;-42
2022/05/20 10:43:10;;;;;;;5.50;2.47;;;18.30;99.90;;;;;;4952809;28;22204;-41
2022/05/20 10:49:29;;;;;;;5.80;3.50;;;18.40;99.90;;;;;;4953725;28;20054;-42
2022/05/20 10:52:18;;;;;;;6.22;3.72;;;18.40;99.90;;;;;;4991907;28;20072;-44
2022/05/20 10:55:12;;;;;;;5.55;2.80;;;18.30;99.90;;;;;;4948644;28;20055;-44
2022/05/20 10:57:56;;;;;;;6.22;3.35;;;18.30;99.90;;;;;;4935381;28;20061;-42
2022/05/20 11:00:41;;;;;;;4.65;3.47;;;18.30;99.90;;;;;;4952694;28;20054;-41
2022/05/20 11:03:41;;;;;;;6.68;3.20;;;18.40;99.90;;;;;;4951103;28;20105;-42
2022/05/20 11:06:41;;;;;;;6.65;3.45;;;18.40;99.90;;;;;;4954100;28;20145;-42
2022/05/20 11:09:45;;;;;;;5.45;3.35;;;18.50;99.90;;;;;;4953670;28;20050;-42
2022/05/20 11:12:25;;;;;;;7.88;3.72;;;18.60;99.90;;;;;;4964889;28;20137;-42
2022/05/20 11:15:09;;;;;;;5.55;4.80;;;18.70;99.90;;;;;;4956491;28;20165;-42
2022/05/20 11:17:54;;;;;;;6.43;4.70;;;18.70;99.90;;;;;;4948783;28;20557;-42
2022/05/20 11:21:17;;;;;;;9.23;4.43;;;18.70;99.90;;;;;;4956347;28;20078;-42
2022/05/20 11:23:42;;;;;;;7.40;4.15;;;18.70;99.90;;;;;;4979044;28;20579;-42
2022/05/20 11:26:49;;;;;;;6.22;3.25;;;18.80;99.90;;;;;;4960416;28;20069;-42
2022/05/20 11:29:33;;;;;;;5.85;3.20;;;18.80;99.90;;;;;;4961704;28;20079;-43
2022/05/20 11:32:03;;;;;;;8.23;3.47;;;18.90;99.90;;;;;;4952297;28;20101;-43
2022/05/20 11:34:44;;;;;;;5.73;3.20;;;18.90;99.90;;;;;;4949697;28;20081;-42
2022/05/20 11:37:22;;;;;;;6.60;2.70;;;19.00;99.90;;;;;;4939746;28;21267;-43
2022/05/20 11:40:12;;;;;;;7.32;3.25;;;19.10;99.90;;;;;;4952977;28;20069;-42
2022/05/20 11:42:48;;;;;;;7.18;3.20;;;19.10;99.90;;;;;;4949406;28;20077;-42
2022/05/20 11:45:26;;;;;;;5.45;2.85;;;19.30;99.90;;;;;;4954169;28;20748;-42
2022/05/20 11:48:10;;;;;;;6.13;3.50;;;19.30;99.90;;;;;;4933199;28;20089;-42
2022/05/20 11:50:45;;;;;;;4.65;3.40;;;19.40;99.90;;;;;;4952179;28;20855;-42
2022/05/20 11:53:26;;;;;;;4.45;2.80;;;19.40;99.90;;;;;;4950126;28;20047;-42
2022/05/20 11:56:24;;;;;;;4.82;3.42;;;19.40;99.90;;;;;;4959997;28;20062;-42
2022/05/20 11:59:06;;;;;;;7.10;3.92;;;19.50;99.90;;;;;;4957628;28;20146;-43
2022/05/20 12:01:35;;;;;;;7.35;4.28;;;19.50;99.90;;;;;;4955525;28;20096;-42
2022/05/20 12:04:07;;;;;;;7.88;3.80;;;19.50;99.90;;;;;;4957517;28;20779;-43
2022/05/20 12:06:46;;;;;;;4.15;3.05;;;19.60;99.90;;;;;;4948472;28;21430;-43
2022/05/20 12:09:27;;;;;;;7.82;2.75;;;19.60;99.90;;;;;;4952337;28;20058;-43
2022/05/20 12:12:17;;;;;;;5.93;3.03;;;19.60;99.90;;;;;;4966294;28;20158;-43
2022/05/20 12:14:59;;;;;;;5.80;2.90;;;19.70;99.90;;;;;;4958547;28;20058;-43
2022/05/20 12:17:29;;;;;;;5.43;3.15;;;19.70;99.90;;;;;;4948699;28;20274;-43
2022/05/20 12:26:15;;;;;;;7.88;3.63;;;19.70;99.90;;;;;;4960983;28;20064;-43
2022/05/20 12:28:41;;;;;;;6.70;3.47;;;19.70;99.90;;;;;;4960431;28;20085;-43
2022/05/20 12:31:36;;;;;;;4.82;2.47;;;19.80;99.90;;;;;;4970370;28;20185;-43
2022/05/20 12:34:10;;;;;;;4.38;2.67;;;19.80;99.90;;;;;;4966229;28;20054;-43
2022/05/20 12:36:41;;;;;;;3.03;2.20;;;19.80;99.90;;;;;;4952902;28;20425;-43
2022/05/20 12:39:06;;;;;;;3.72;2.45;;;19.90;99.90;;;;;;4951147;28;20051;-43
2022/05/20 12:41:45;;;;;;;3.40;2.20;;;20.00;99.90;;;;;;4964602;28;20065;-43
2022/05/20 12:44:23;;;;;;;4.00;2.63;;;20.10;99.90;;;;;;4968597;28;20403;-43
2022/05/20 12:47:06;;;;;;;5.82;3.78;;;20.20;99.90;;;;;;4948789;28;20492;-43
2022/05/20 12:50:04;;;;;;;6.85;3.85;;;20.20;99.90;;;;;;4959827;28;20082;-43
2022/05/20 12:52:45;;;;;;;4.70;2.70;;;20.30;99.90;;;;;;4955082;28;20734;-43
2022/05/20 12:55:24;;;;;;;5.30;2.88;;;20.30;99.90;;;;;;4942104;28;20051;-43
2022/05/20 12:57:52;;;;;;;3.53;2.38;;;20.30;99.90;;;;;;4940651;28;21820;-43
2022/05/20 13:00:29;;;;;;;3.42;2.35;;;20.30;99.90;;;;;;4967422;28;20137;-43
2022/05/20 13:03:18;;;;;;;5.28;2.80;;;20.40;99.90;;;;;;4967192;28;20057;-43
2022/05/20 13:05:57;;;;;;;4.15;2.40;;;20.40;99.90;;;;;;4966843;28;20042;-43
2022/05/20 13:08:30;;;;;;;3.22;2.28;;;20.40;99.90;;;;;;4950805;28;20085;-43
2022/05/20 13:10:55;;;;;;;5.15;3.78;;;20.40;99.90;;;;;;4964034;28;20050;-43
2022/05/20 13:13:28;;;;;;;5.65;3.72;;;20.40;99.90;;;;;;4960619;28;20105;-43
2022/05/20 13:16:03;;;;;;;6.25;4.20;;;20.40;99.90;;;;;;4966284;28;20058;-43
2022/05/20 13:18:32;;;;;;;5.10;4.40;;;20.40;99.90;;;;;;4938671;28;21124;-43
2022/05/20 13:21:16;;;;;;;6.03;4.72;;;20.30;99.90;;;;;;4958365;28;20054;-43
2022/05/20 13:23:47;;;;;;;6.97;4.93;;;20.30;99.90;;;;;;4965222;28;20050;-43
2022/05/20 13:26:24;;;;;;;8.50;4.40;;;20.30;99.90;;;;;;4945044;28;20057;-43
2022/05/20 13:28:50;;;;;;;8.45;4.97;;;20.20;99.90;;;;;;4950980;28;20054;-43
2022/05/20 13:31:22;;;;;;;8.20;5.72;;;20.20;99.90;;;;;;4954424;28;20069;-43
2022/05/20 13:33:48;;;;;;;6.57;5.63;;;20.20;99.90;;;;;;4961766;28;20062;-43
2022/05/20 13:36:21;;;;;;;10.25;6.90;;;20.10;99.90;;;;;;4951314;28;20050;-41
2022/05/20 13:38:49;;;;;;;7.45;6.13;;;20.10;99.90;;;;;;4949488;28;20069;-42
2022/05/20 13:41:19;;;;;;;8.57;6.43;;;20.10;99.90;;;;;;4951657;28;20137;-42